createdAt,value
2018-06-12T00:02:07.225Z,9.00
2018-06-12T00:05:10.164Z,9.50
2018-06-12T00:08:13.142Z,9.37
2018-06-12T00:11:16.117Z,9.90
2018-06-12T00:14:19.061Z,9.20
2018-06-12T00:17:22.016Z,9.70
2018-06-12T00:20:24.945Z,9.13
2018-06-12T00:23:27.909Z,10.10
2018-06-12T00:26:30.903Z,9.80
2018-06-12T00:29:33.867Z,9.67
2018-06-12T00:32:36.830Z,10.47
2018-06-12T00:35:39.774Z,11.00
2018-06-12T00:38:42.739Z,9.50
2018-06-12T00:41:45.725Z,10.50
2018-06-12T00:44:48.708Z,10.77
2018-06-12T00:47:51.764Z,9.70
2018-06-12T00:50:54.719Z,9.70
2018-06-12T00:53:57.684Z,10.67
2018-06-12T00:57:08.779Z,10.20
2018-06-12T01:00:11.731Z,9.90
2018-06-12T01:03:14.733Z,11.07
2018-06-12T01:06:17.706Z,10.70
2018-06-12T01:09:20.626Z,9.97
2018-06-12T01:12:23.509Z,11.03
2018-06-12T01:15:26.495Z,10.70
2018-06-12T01:18:29.381Z,10.40
2018-06-12T01:21:32.299Z,10.47
2018-06-12T01:24:35.219Z,10.57
2018-06-12T01:27:38.147Z,11.10
2018-06-12T01:30:41.065Z,11.47
2018-06-12T01:33:44.000Z,11.83
2018-06-12T01:36:46.878Z,12.57
2018-06-12T01:39:49.830Z,12.13
2018-06-12T01:42:52.742Z,11.80
2018-06-12T01:45:55.640Z,13.57
2018-06-12T01:48:58.583Z,13.00
2018-06-12T01:52:01.509Z,12.77
2018-06-12T01:55:04.403Z,13.97
2018-06-12T01:58:07.298Z,14.77
2018-06-12T02:01:10.156Z,16.83
2018-06-12T02:04:13.069Z,15.80
2018-06-12T02:07:15.939Z,16.37
2018-06-12T02:13:50.624Z,16.23
2018-06-12T02:16:53.524Z,17.80
2018-06-12T02:19:56.445Z,16.97
2018-06-12T02:22:59.364Z,18.00
2018-06-12T02:26:02.287Z,17.63
2018-06-12T02:29:05.290Z,16.57
2018-06-12T02:32:09.189Z,16.63
2018-06-12T02:35:12.105Z,17.87
2018-06-12T02:38:15.009Z,17.93
2018-06-12T02:41:17.901Z,18.20
2018-06-12T02:44:20.825Z,17.43
2018-06-12T02:47:23.730Z,16.77
2018-06-12T02:50:26.648Z,18.27
2018-06-12T02:53:29.588Z,19.20
2018-06-12T02:56:32.501Z,19.37
2018-06-12T02:59:35.623Z,19.10
2018-06-12T03:02:38.537Z,19.10
2018-06-12T03:05:41.428Z,19.47
2018-06-12T03:08:44.336Z,18.83
2018-06-12T03:11:47.250Z,18.50
2018-06-12T03:14:50.147Z,18.23
2018-06-12T03:17:53.072Z,20.17
2018-06-12T03:20:55.977Z,18.03
2018-06-12T03:23:58.955Z,19.67
2018-06-12T03:27:01.872Z,19.37
2018-06-12T03:30:04.841Z,20.77
2018-06-12T03:33:07.777Z,19.03
2018-06-12T03:36:10.732Z,19.07
2018-06-12T03:39:13.648Z,19.90
2018-06-12T03:42:16.583Z,21.80
2018-06-12T03:45:19.523Z,23.40
2018-06-12T03:48:22.458Z,25.63
2018-06-12T03:51:25.451Z,27.20
2018-06-12T03:54:28.568Z,31.90
2018-06-12T03:57:31.617Z,29.93
2018-06-12T04:00:35.789Z,28.67
2018-06-12T04:03:39.528Z,29.20
2018-06-12T04:06:42.469Z,30.63
2018-06-12T04:09:45.354Z,29.23
2018-06-12T04:12:48.246Z,27.03
2018-06-12T04:15:51.249Z,22.63
2018-06-12T04:18:54.163Z,22.27
2018-06-12T04:21:57.069Z,19.97
2018-06-12T04:24:59.997Z,19.77
2018-06-12T04:28:02.990Z,17.07
2018-06-12T04:31:05.906Z,19.23
2018-06-12T04:34:08.830Z,18.27
2018-06-12T04:37:11.756Z,18.47
2018-06-12T04:40:14.702Z,17.90
2018-06-12T04:43:17.677Z,16.90
2018-06-12T04:46:20.556Z,17.27
2018-06-12T04:49:23.493Z,17.10
2018-06-12T04:52:26.607Z,16.83
2018-06-12T04:55:29.498Z,16.80
2018-06-12T04:58:32.488Z,16.43
2018-06-12T05:01:35.445Z,15.47
2018-06-12T05:04:38.371Z,15.40
2018-06-12T05:07:41.303Z,16.60
2018-06-12T05:10:44.248Z,16.17
2018-06-12T05:13:47.171Z,15.30
2018-06-12T05:16:50.096Z,14.00
2018-06-12T05:19:53.039Z,14.83
2018-06-12T05:22:56.011Z,15.00
2018-06-12T05:25:58.923Z,14.23
2018-06-12T05:29:01.893Z,11.40
2018-06-12T05:32:04.881Z,9.53
2018-06-12T05:35:07.809Z,8.63
2018-06-12T05:38:10.704Z,7.70
2018-06-12T05:41:13.624Z,8.10
2018-06-12T05:44:16.528Z,8.23
2018-06-12T05:47:19.472Z,7.53
2018-06-12T05:50:22.362Z,7.70
2018-06-12T05:53:25.307Z,8.17
2018-06-12T05:56:28.220Z,9.10
2018-06-12T05:59:31.184Z,8.53
2018-06-12T06:02:34.112Z,10.60
2018-06-12T06:05:37.060Z,10.43
2018-06-12T06:08:39.977Z,10.00
2018-06-12T06:11:42.889Z,9.83
2018-06-12T06:14:45.852Z,10.03
2018-06-12T06:17:48.774Z,10.27
2018-06-12T06:20:51.699Z,9.63
2018-06-12T06:23:54.601Z,9.17
2018-06-12T06:26:57.586Z,10.00
2018-06-12T06:30:00.528Z,10.20
2018-06-12T06:33:03.500Z,13.03
2018-06-12T06:36:06.441Z,12.57
2018-06-12T06:39:09.368Z,15.17
2018-06-12T06:42:12.293Z,14.40
2018-06-12T06:45:15.246Z,14.07
2018-06-12T06:48:18.185Z,15.73
2018-06-12T06:51:21.095Z,15.63
2018-06-12T06:54:24.010Z,14.37
2018-06-12T06:57:26.894Z,16.10
2018-06-12T07:00:29.817Z,15.10
2018-06-12T07:03:32.776Z,14.80
2018-06-12T07:06:35.703Z,16.97
2018-06-12T07:09:38.586Z,16.00
2018-06-12T07:12:41.613Z,15.80
2018-06-12T07:15:44.623Z,16.43
2018-06-12T07:18:47.691Z,15.80
2018-06-12T07:21:50.640Z,16.20
2018-06-12T07:24:53.583Z,14.27
2018-06-12T07:27:56.572Z,13.90
2018-06-12T07:30:59.529Z,14.03
2018-06-12T07:34:02.465Z,13.43
2018-06-12T07:37:05.411Z,15.37
2018-06-12T07:40:08.289Z,11.33
2018-06-12T07:43:11.211Z,11.47
2018-06-12T07:46:14.158Z,12.20
2018-06-12T07:49:17.092Z,11.67
2018-06-12T07:52:20.008Z,10.10
2018-06-12T07:55:22.914Z,9.90
2018-06-12T07:58:25.839Z,8.67
2018-06-12T08:01:28.742Z,9.10
2018-06-12T08:04:31.669Z,7.23
2018-06-12T08:07:34.646Z,6.77
2018-06-12T08:10:37.542Z,7.27
2018-06-12T08:13:40.470Z,6.40
2018-06-12T08:16:43.390Z,7.07
2018-06-12T08:19:46.321Z,6.67
2018-06-12T08:22:49.229Z,7.30
2018-06-12T08:25:52.131Z,6.43
2018-06-12T08:28:55.038Z,12.10
2018-06-12T08:31:57.969Z,6.00
2018-06-12T08:35:00.956Z,6.53
2018-06-12T08:38:03.921Z,7.53
2018-06-12T08:41:06.809Z,6.63
2018-06-12T08:44:09.710Z,5.37
2018-06-12T08:47:12.617Z,5.87
2018-06-12T08:50:15.545Z,6.60
2018-06-12T08:53:18.442Z,5.60
2018-06-12T08:56:21.389Z,6.57
2018-06-12T08:59:24.678Z,6.00
2018-06-12T09:02:27.592Z,5.93
2018-06-12T09:05:30.521Z,5.60
2018-06-12T09:08:33.445Z,5.83
2018-06-12T09:11:36.349Z,6.13
2018-06-12T09:14:39.273Z,5.40
2018-06-12T09:17:42.181Z,6.50
2018-06-12T09:20:45.103Z,6.30
2018-06-12T09:23:48.040Z,5.80
2018-06-12T09:26:50.967Z,5.70
2018-06-12T09:29:53.873Z,5.70
2018-06-12T09:32:56.794Z,5.90
2018-06-12T09:36:06.150Z,6.20
2018-06-12T09:39:09.320Z,5.37
2018-06-12T09:42:12.248Z,6.00
2018-06-12T09:45:15.154Z,5.37
2018-06-12T09:48:18.061Z,5.70
2018-06-12T09:51:21.022Z,5.20
2018-06-12T09:54:23.975Z,6.70
2018-06-12T09:57:26.919Z,5.30
2018-06-12T10:00:35.461Z,5.70
2018-06-12T10:03:38.358Z,6.00
2018-06-12T10:06:41.300Z,6.73
2018-06-12T10:09:44.210Z,6.63
2018-06-12T10:12:47.118Z,6.47
2018-06-12T10:15:50.032Z,5.47
2018-06-12T10:18:53.026Z,5.93
2018-06-12T10:21:55.916Z,6.60
2018-06-12T10:24:58.878Z,5.93
2018-06-12T10:28:01.800Z,7.50
2018-06-12T10:31:04.745Z,9.37
2018-06-12T10:34:07.667Z,8.97
2018-06-12T10:37:10.577Z,14.43
2018-06-12T10:40:13.490Z,12.83
2018-06-12T10:43:16.409Z,10.77
2018-06-12T10:46:19.322Z,8.27
2018-06-12T10:49:22.277Z,11.40
2018-06-12T10:52:25.219Z,15.63
2018-06-12T10:55:28.161Z,14.67
2018-06-12T10:58:31.094Z,15.07
2018-06-12T11:01:34.028Z,13.33
2018-06-12T11:04:36.973Z,13.90
2018-06-12T11:07:39.877Z,13.10
2018-06-12T11:10:42.787Z,14.00
2018-06-12T11:13:45.701Z,14.50
2018-06-12T11:16:48.656Z,14.30
2018-06-12T11:19:51.566Z,15.00
2018-06-12T11:22:54.523Z,13.97
2018-06-12T11:25:57.436Z,13.60
2018-06-12T11:29:00.332Z,13.90
2018-06-12T11:32:03.725Z,12.57
2018-06-12T11:35:06.653Z,11.10
2018-06-12T11:38:09.568Z,10.80
2018-06-12T11:41:12.469Z,10.93
2018-06-12T11:44:15.360Z,9.17
2018-06-12T11:47:18.261Z,9.40
2018-06-12T11:50:21.157Z,7.60
2018-06-12T11:53:24.090Z,9.87
2018-06-12T11:56:27.018Z,8.20
2018-06-12T11:59:29.943Z,8.63
2018-06-12T12:02:32.858Z,9.47
2018-06-12T12:05:35.765Z,8.43
2018-06-12T12:08:38.703Z,9.27
2018-06-12T12:11:41.701Z,8.90
2018-06-12T12:14:44.635Z,8.33
2018-06-12T12:17:47.600Z,7.40
2018-06-12T12:20:50.538Z,7.77
2018-06-12T12:23:53.486Z,7.77
2018-06-12T12:26:56.511Z,7.33
2018-06-12T12:29:59.420Z,7.90
2018-06-12T12:33:02.363Z,7.80
2018-06-12T12:36:06.805Z,7.47
2018-06-12T12:39:09.740Z,6.70
2018-06-12T12:42:12.646Z,7.03
2018-06-12T12:45:15.568Z,7.37
2018-06-12T12:48:19.069Z,7.43
2018-06-12T12:51:22.266Z,7.23
2018-06-12T12:54:25.469Z,7.47
2018-06-12T12:57:28.400Z,6.57
2018-06-12T13:00:31.380Z,6.47
2018-06-12T13:03:34.537Z,6.37
2018-06-12T13:06:38.068Z,6.77
2018-06-12T13:09:40.965Z,6.17
2018-06-12T13:12:43.897Z,6.33
2018-06-12T13:15:46.822Z,5.97
2018-06-12T13:18:49.737Z,5.90
2018-06-12T13:21:52.669Z,5.47
2018-06-12T13:24:55.699Z,6.17
2018-06-12T13:27:58.821Z,5.27
2018-06-12T13:31:02.698Z,4.70
2018-06-12T13:34:06.571Z,5.33
2018-06-12T13:37:10.409Z,5.87
2018-06-12T13:40:13.774Z,5.13
2018-06-12T13:43:17.769Z,12.73
2018-06-12T13:46:21.046Z,8.40
2018-06-12T13:49:24.575Z,6.50
2018-06-12T13:52:28.731Z,5.60
2018-06-12T13:55:31.775Z,5.80
2018-06-12T13:58:34.899Z,4.53
2018-06-12T14:01:38.115Z,5.17
2018-06-12T14:04:42.167Z,5.53
2018-06-12T14:07:46.287Z,5.20
2018-06-12T14:10:50.830Z,5.43
2018-06-12T14:13:54.107Z,9.63
2018-06-12T14:16:57.681Z,9.90
2018-06-12T14:20:00.767Z,6.20
2018-06-12T14:23:04.254Z,6.67
2018-06-12T14:26:07.711Z,6.00
2018-06-12T14:29:10.738Z,5.90
2018-06-12T14:32:14.190Z,6.20
2018-06-12T14:35:17.460Z,6.80
2018-06-12T14:38:21.088Z,8.00
2018-06-12T14:41:24.290Z,7.43
2018-06-12T14:44:27.638Z,7.20
2018-06-12T14:47:31.467Z,7.13
2018-06-12T14:50:35.368Z,7.13
2018-06-12T14:53:39.020Z,7.77
2018-06-12T14:56:42.845Z,8.50
2018-06-12T14:59:46.164Z,9.90
2018-06-12T15:02:49.173Z,9.17
2018-06-12T15:05:53.902Z,10.40
2018-06-12T15:08:58.327Z,9.50
2018-06-12T15:12:01.986Z,15.20
2018-06-12T15:15:05.890Z,11.73
2018-06-12T15:18:09.001Z,13.00
2018-06-12T15:21:12.852Z,13.37
2018-06-12T15:24:16.516Z,14.23
2018-06-12T15:27:19.798Z,13.27
2018-06-12T15:30:22.858Z,13.77
2018-06-12T15:33:26.901Z,14.47
2018-06-12T15:36:30.330Z,14.00
2018-06-12T15:39:33.650Z,14.30
2018-06-12T15:42:37.405Z,15.37
2018-06-12T15:45:41.066Z,15.13
2018-06-12T15:48:44.452Z,14.27
2018-06-12T15:51:48.032Z,15.70
2018-06-12T15:54:51.453Z,14.23
2018-06-12T15:57:54.692Z,13.20
2018-06-12T16:00:59.141Z,13.20
2018-06-12T16:04:02.325Z,12.50
2018-06-12T16:07:05.616Z,13.40
2018-06-12T16:10:09.346Z,12.33
2018-06-12T16:13:13.284Z,11.80
2018-06-12T16:16:16.255Z,12.20
2018-06-12T16:19:19.477Z,11.37
2018-06-12T16:22:23.237Z,11.27
2018-06-12T16:25:26.757Z,10.80
2018-06-12T16:28:30.165Z,10.23
2018-06-12T16:31:34.703Z,11.27
2018-06-12T16:34:38.186Z,10.37
2018-06-12T16:37:41.698Z,10.07
2018-06-12T16:40:45.714Z,11.43
2018-06-12T16:43:48.997Z,10.70
2018-06-12T16:46:52.714Z,11.00
2018-06-12T16:49:56.230Z,10.00
2018-06-12T16:52:59.745Z,10.93
2018-06-12T16:56:02.981Z,12.13
2018-06-12T16:59:06.441Z,10.00
2018-06-12T17:02:09.930Z,10.33
2018-06-12T17:05:14.509Z,10.47
2018-06-12T17:08:17.873Z,10.60
2018-06-12T17:11:21.185Z,11.90
2018-06-12T17:14:24.581Z,9.77
2018-06-12T17:17:28.081Z,9.57
2018-06-12T17:20:31.418Z,9.90
2018-06-12T17:23:34.775Z,10.83
2018-06-12T17:26:38.288Z,9.43
2018-06-12T17:29:41.713Z,9.90
2018-06-12T17:32:45.238Z,10.43
2018-06-12T17:35:48.805Z,10.57
2018-06-12T17:38:52.115Z,9.40
2018-06-12T17:41:56.025Z,10.47
2018-06-12T17:44:59.568Z,10.30
2018-06-12T17:48:02.841Z,11.27
2018-06-12T17:51:06.762Z,11.70
2018-06-12T17:54:10.224Z,12.70
2018-06-12T17:57:14.711Z,13.50
2018-06-12T18:00:18.581Z,12.97
2018-06-12T18:03:22.101Z,11.60
2018-06-12T18:06:27.183Z,13.17
2018-06-12T18:09:30.528Z,12.57
2018-06-12T18:12:33.909Z,12.07
2018-06-12T18:15:37.858Z,13.47
2018-06-12T18:18:41.578Z,12.50
2018-06-12T18:21:44.877Z,11.83
2018-06-12T18:24:48.244Z,11.37
2018-06-12T18:27:51.074Z,11.00
2018-06-12T18:30:54.013Z,11.07
2018-06-12T18:33:56.995Z,10.53
2018-06-12T18:36:59.926Z,9.43
2018-06-12T18:40:02.874Z,9.73
2018-06-12T18:43:05.854Z,64.17
2018-06-12T18:46:08.797Z,12.00
2018-06-12T18:49:11.734Z,12.73
2018-06-12T18:52:14.690Z,10.57
2018-06-12T18:55:17.635Z,10.60
2018-06-12T18:58:20.565Z,10.50
2018-06-12T19:01:23.540Z,10.93
2018-06-12T19:04:26.508Z,10.13
2018-06-12T19:07:29.470Z,9.23
2018-06-12T19:10:32.398Z,9.37
2018-06-12T19:13:35.379Z,10.60
2018-06-12T19:16:38.303Z,10.93
2018-06-12T19:19:41.263Z,10.87
2018-06-12T19:22:44.216Z,10.67
2018-06-12T19:25:47.169Z,10.00
2018-06-12T19:28:50.128Z,10.13
2018-06-12T19:31:53.109Z,10.40
2018-06-12T19:34:56.088Z,10.80
2018-06-12T19:37:59.022Z,9.67
2018-06-12T19:41:01.980Z,10.83
2018-06-12T19:44:04.939Z,9.70
2018-06-12T19:47:07.861Z,11.50
2018-06-12T19:50:10.789Z,10.93
2018-06-12T19:53:13.678Z,10.30
2018-06-12T19:56:16.608Z,9.87
2018-06-12T19:59:19.502Z,10.50
2018-06-12T20:02:22.409Z,10.60
2018-06-12T20:05:32.123Z,10.17
2018-06-12T20:08:35.061Z,9.73
2018-06-12T20:11:38.001Z,9.57
2018-06-12T20:14:40.935Z,7.10
2018-06-12T20:17:43.827Z,7.80
2018-06-12T20:20:46.741Z,16.70
2018-06-12T20:23:49.637Z,10.60
2018-06-12T20:26:52.549Z,7.63
2018-06-12T20:29:55.450Z,7.73
2018-06-12T20:32:58.441Z,7.40
2018-06-12T20:36:02.829Z,6.23
2018-06-12T20:39:08.158Z,7.40
2018-06-12T20:42:11.109Z,7.47
2018-06-12T20:45:14.190Z,8.07
2018-06-12T20:48:17.764Z,7.90
2018-06-12T20:51:21.176Z,7.13
2018-06-12T20:54:24.216Z,6.43
2018-06-12T20:57:27.594Z,5.50
2018-06-12T21:00:30.609Z,5.47
2018-06-12T21:03:33.694Z,6.30
2018-06-12T21:06:36.761Z,6.57
2018-06-12T21:09:39.871Z,6.43
2018-06-12T21:12:43.023Z,6.07
2018-06-12T21:15:46.974Z,6.40
2018-06-12T21:18:50.553Z,5.60
2018-06-12T21:21:53.657Z,5.30
2018-06-12T21:24:56.807Z,6.40
2018-06-12T21:27:59.990Z,5.63
2018-06-12T21:31:03.005Z,5.30
2018-06-12T21:34:06.028Z,6.00
2018-06-12T21:37:09.832Z,5.47
2018-06-12T21:40:12.916Z,5.83
2018-06-12T21:43:15.981Z,5.73
2018-06-12T21:46:18.928Z,5.20
2018-06-12T21:49:22.254Z,4.70
2018-06-12T21:52:25.166Z,4.27
2018-06-12T21:55:28.319Z,3.83
2018-06-12T21:58:31.372Z,4.33
2018-06-12T22:01:34.282Z,4.00
2018-06-12T22:04:37.182Z,3.90
2018-06-12T22:07:40.330Z,3.80
2018-06-12T22:10:43.263Z,4.13
2018-06-12T22:13:46.804Z,3.80
2018-06-12T22:16:49.748Z,3.67
2018-06-12T22:19:52.712Z,3.90
2018-06-12T22:22:55.630Z,4.50
2018-06-12T22:25:58.785Z,3.70
2018-06-12T22:29:01.849Z,3.13
2018-06-12T22:32:05.338Z,4.10
2018-06-12T22:35:08.334Z,3.70
2018-06-12T22:38:11.248Z,3.43
2018-06-12T22:41:14.258Z,4.10
2018-06-12T22:44:17.384Z,5.30
2018-06-12T22:47:21.338Z,5.00
2018-06-12T22:50:24.368Z,4.83
2018-06-12T22:53:27.444Z,4.93
2018-06-12T22:56:30.384Z,5.20
2018-06-12T22:59:33.366Z,5.10
2018-06-12T23:02:36.548Z,5.67
2018-06-12T23:05:39.467Z,4.40
2018-06-12T23:08:42.353Z,5.23
2018-06-12T23:11:45.299Z,5.27
2018-06-12T23:14:48.219Z,4.30
2018-06-12T23:17:51.159Z,5.10
2018-06-12T23:22:04.303Z,4.87
2018-06-12T23:25:07.232Z,5.50
2018-06-12T23:28:10.149Z,5.60
2018-06-12T23:31:13.050Z,4.73
2018-06-12T23:34:15.937Z,5.20
2018-06-12T23:37:18.877Z,5.13
2018-06-12T23:40:21.772Z,5.57
2018-06-12T23:43:24.708Z,5.33
2018-06-12T23:46:27.623Z,4.83
2018-06-12T23:49:30.568Z,4.33
2018-06-12T23:52:33.449Z,4.37
2018-06-12T23:55:36.421Z,4.53
2018-06-12T23:58:39.359Z,4.77
